sensor_id;sensor_type;location;lat;lon;timestamp;temperature;humidity
16663;DHT22;8445;51.270;9.434;2024-03-23T00:53:17;8.90;74.70
16663;DHT22;8445;51.270;9.434;2024-03-23T00:55:43;8.90;74.70
16663;DHT22;8445;51.270;9.434;2024-03-23T00:58:10;9.00;74.70
16663;DHT22;8445;51.270;9.434;2024-03-23T01:00:36;9.00;74.60
16663;DHT22;8445;51.270;9.434;2024-03-23T01:03:01;9.00;74.30
16663;DHT22;8445;51.270;9.434;2024-03-23T01:05:27;8.90;74.30
16663;DHT22;8445;51.270;9.434;2024-03-23T01:07:53;8.90;74.30
16663;DHT22;8445;51.270;9.434;2024-03-23T01:10:19;8.80;74.20
16663;DHT22;8445;51.270;9.434;2024-03-23T01:12:48;8.80;74.30
16663;DHT22;8445;51.270;9.434;2024-03-23T01:15:14;8.80;73.80
16663;DHT22;8445;51.270;9.434;2024-03-23T01:17:40;8.80;73.20
16663;DHT22;8445;51.270;9.434;2024-03-23T01:20:06;8.80;72.70
16663;DHT22;8445;51.270;9.434;2024-03-23T01:22:33;8.70;72.50
16663;DHT22;8445;51.270;9.434;2024-03-23T01:24:58;8.60;72.60
16663;DHT22;8445;51.270;9.434;2024-03-23T01:27:24;8.60;72.70
16663;DHT22;8445;51.270;9.434;2024-03-23T01:29:51;8.60;72.70
16663;DHT22;8445;51.270;9.434;2024-03-23T01:32:18;8.50;72.90
16663;DHT22;8445;51.270;9.434;2024-03-23T01:34:47;8.40;73.00
16663;DHT22;8445;51.270;9.434;2024-03-23T01:37:13;8.40;73.20
16663;DHT22;8445;51.270;9.434;2024-03-23T01:39:39;8.40;73.60
16663;DHT22;8445;51.270;9.434;2024-03-23T01:42:06;8.40;73.50
16663;DHT22;8445;51.270;9.434;2024-03-23T01:44:32;8.40;73.20
16663;DHT22;8445;51.270;9.434;2024-03-23T01:46:58;8.40;72.80
16663;DHT22;8445;51.270;9.434;2024-03-23T01:49:24;8.40;72.80
16663;DHT22;8445;51.270;9.434;2024-03-23T01:51:50;8.30;72.90
16663;DHT22;8445;51.270;9.434;2024-03-23T01:54:16;8.30;73.10
16663;DHT22;8445;51.270;9.434;2024-03-23T01:56:42;8.20;73.20
16663;DHT22;8445;51.270;9.434;2024-03-23T01:59:11;8.10;73.20
16663;DHT22;8445;51.270;9.434;2024-03-23T02:01:38;8.10;73.20
16663;DHT22;8445;51.270;9.434;2024-03-23T02:04:04;8.10;73.50
16663;DHT22;8445;51.270;9.434;2024-03-23T02:06:30;8.10;73.80
16663;DHT22;8445;51.270;9.434;2024-03-23T02:08:56;8.10;73.70
16663;DHT22;8445;51.270;9.434;2024-03-23T02:11:23;8.00;74.00
16663;DHT22;8445;51.270;9.434;2024-03-23T02:13:49;8.00;74.20
16663;DHT22;8445;51.270;9.434;2024-03-23T02:16:15;7.90;74.50
16663;DHT22;8445;51.270;9.434;2024-03-23T02:18:41;7.80;74.70
16663;DHT22;8445;51.270;9.434;2024-03-23T02:21:09;7.70;75.10
16663;DHT22;8445;51.270;9.434;2024-03-23T02:23:35;7.60;75.40
16663;DHT22;8445;51.270;9.434;2024-03-23T02:26:04;7.50;75.50
16663;DHT22;8445;51.270;9.434;2024-03-23T02:28:32;7.40;75.80
16663;DHT22;8445;51.270;9.434;2024-03-23T02:30:58;7.40;76.40
16663;DHT22;8445;51.270;9.434;2024-03-23T02:33:25;7.20;77.30
16663;DHT22;8445;51.270;9.434;2024-03-23T02:35:56;7.20;78.80
16663;DHT22;8445;51.270;9.434;2024-03-23T02:38:22;7.10;79.80
16663;DHT22;8445;51.270;9.434;2024-03-23T02:40:49;7.00;80.10
16663;DHT22;8445;51.270;9.434;2024-03-23T02:43:15;6.90;80.60
16663;DHT22;8445;51.270;9.434;2024-03-23T02:45:44;6.80;80.70
16663;DHT22;8445;51.270;9.434;2024-03-23T02:48:10;6.70;81.50
16663;DHT22;8445;51.270;9.434;2024-03-23T02:50:36;6.60;82.10
16663;DHT22;8445;51.270;9.434;2024-03-23T02:53:02;6.60;82.20
16663;DHT22;8445;51.270;9.434;2024-03-23T02:55:28;6.50;82.30
16663;DHT22;8445;51.270;9.434;2024-03-23T02:57:53;6.40;82.70
16663;DHT22;8445;51.270;9.434;2024-03-23T03:00:20;6.40;82.50
16663;DHT22;8445;51.270;9.434;2024-03-23T03:02:47;6.30;82.70
16663;DHT22;8445;51.270;9.434;2024-03-23T03:05:13;6.20;82.60
16663;DHT22;8445;51.270;9.434;2024-03-23T03:07:39;6.20;83.00
16663;DHT22;8445;51.270;9.434;2024-03-23T03:10:06;6.20;82.90
16663;DHT22;8445;51.270;9.434;2024-03-23T03:12:35;6.10;82.80
16663;DHT22;8445;51.270;9.434;2024-03-23T03:15:04;6.10;83.00
16663;DHT22;8445;51.270;9.434;2024-03-23T03:17:31;6.00;83.00
16663;DHT22;8445;51.270;9.434;2024-03-23T03:20:02;6.00;83.70
16663;DHT22;8445;51.270;9.434;2024-03-23T03:22:30;6.00;83.80
16663;DHT22;8445;51.270;9.434;2024-03-23T03:24:56;6.00;83.70
16663;DHT22;8445;51.270;9.434;2024-03-23T03:27:21;6.00;84.10
16663;DHT22;8445;51.270;9.434;2024-03-23T03:29:48;6.00;83.60
16663;DHT22;8445;51.270;9.434;2024-03-23T03:32:37;5.90;83.90
16663;DHT22;8445;51.270;9.434;2024-03-23T03:35:03;5.90;83.90
16663;DHT22;8445;51.270;9.434;2024-03-23T03:37:30;5.80;84.20
16663;DHT22;8445;51.270;9.434;2024-03-23T03:39:56;5.70;84.20
16663;DHT22;8445;51.270;9.434;2024-03-23T03:42:22;5.70;84.30
16663;DHT22;8445;51.270;9.434;2024-03-23T03:44:47;5.60;84.30
16663;DHT22;8445;51.270;9.434;2024-03-23T03:47:13;5.50;84.40
16663;DHT22;8445;51.270;9.434;2024-03-23T03:49:39;5.50;84.70
16663;DHT22;8445;51.270;9.434;2024-03-23T03:52:05;5.40;84.80
16663;DHT22;8445;51.270;9.434;2024-03-23T03:54:32;5.30;84.90
16663;DHT22;8445;51.270;9.434;2024-03-23T03:57:00;5.30;85.10
16663;DHT22;8445;51.270;9.434;2024-03-23T03:59:27;5.30;85.30
16663;DHT22;8445;51.270;9.434;2024-03-23T04:01:53;5.20;85.50
16663;DHT22;8445;51.270;9.434;2024-03-23T04:04:19;5.10;85.70
16663;DHT22;8445;51.270;9.434;2024-03-23T04:06:46;5.10;85.70
16663;DHT22;8445;51.270;9.434;2024-03-23T04:09:11;5.10;85.70
16663;DHT22;8445;51.270;9.434;2024-03-23T04:11:37;5.00;85.90
16663;DHT22;8445;51.270;9.434;2024-03-23T04:14:03;5.00;85.90
16663;DHT22;8445;51.270;9.434;2024-03-23T04:16:33;5.00;85.90
16663;DHT22;8445;51.270;9.434;2024-03-23T04:19:03;5.00;85.90
16663;DHT22;8445;51.270;9.434;2024-03-23T04:21:32;5.00;86.10
16663;DHT22;8445;51.270;9.434;2024-03-23T04:24:07;5.00;86.10
16663;DHT22;8445;51.270;9.434;2024-03-23T04:26:43;4.90;86.00
16663;DHT22;8445;51.270;9.434;2024-03-23T04:29:09;4.90;86.30
16663;DHT22;8445;51.270;9.434;2024-03-23T04:31:35;4.90;86.30
16663;DHT22;8445;51.270;9.434;2024-03-23T04:34:01;4.90;86.20
16663;DHT22;8445;51.270;9.434;2024-03-23T04:36:28;4.80;86.60
16663;DHT22;8445;51.270;9.434;2024-03-23T04:38:54;4.70;86.20
16663;DHT22;8445;51.270;9.434;2024-03-23T04:41:22;4.70;86.40
16663;DHT22;8445;51.270;9.434;2024-03-23T04:43:51;4.70;86.10
16663;DHT22;8445;51.270;9.434;2024-03-23T04:46:17;4.60;86.20
16663;DHT22;8445;51.270;9.434;2024-03-23T04:48:43;4.60;86.20
16663;DHT22;8445;51.270;9.434;2024-03-23T04:51:24;4.50;86.30
16663;DHT22;8445;51.270;9.434;2024-03-23T04:53:50;4.50;86.10
16663;DHT22;8445;51.270;9.434;2024-03-23T04:56:31;4.50;86.10
16663;DHT22;8445;51.270;9.434;2024-03-23T04:58:57;4.40;86.30
16663;DHT22;8445;51.270;9.434;2024-03-23T05:01:27;4.40;86.10
16663;DHT22;8445;51.270;9.434;2024-03-23T05:03:56;4.30;86.40
16663;DHT22;8445;51.270;9.434;2024-03-23T05:06:23;4.30;86.40
16663;DHT22;8445;51.270;9.434;2024-03-23T05:08:50;4.30;86.20
16663;DHT22;8445;51.270;9.434;2024-03-23T05:11:16;4.30;86.30
16663;DHT22;8445;51.270;9.434;2024-03-23T05:13:47;4.20;85.70
16663;DHT22;8445;51.270;9.434;2024-03-23T05:16:13;4.20;86.00
16663;DHT22;8445;51.270;9.434;2024-03-23T05:18:39;4.10;86.00
16663;DHT22;8445;51.270;9.434;2024-03-23T05:21:05;4.10;86.10
16663;DHT22;8445;51.270;9.434;2024-03-23T05:23:31;4.00;86.30
16663;DHT22;8445;51.270;9.434;2024-03-23T05:26:00;4.00;86.20
16663;DHT22;8445;51.270;9.434;2024-03-23T05:28:25;3.90;86.50
16663;DHT22;8445;51.270;9.434;2024-03-23T05:30:56;3.90;86.90
16663;DHT22;8445;51.270;9.434;2024-03-23T05:33:27;3.90;86.90
16663;DHT22;8445;51.270;9.434;2024-03-23T05:35:57;3.90;87.00
16663;DHT22;8445;51.270;9.434;2024-03-23T05:38:24;3.90;86.70
16663;DHT22;8445;51.270;9.434;2024-03-23T05:40:59;3.90;86.40
16663;DHT22;8445;51.270;9.434;2024-03-23T05:43:28;3.90;86.60
16663;DHT22;8445;51.270;9.434;2024-03-23T05:48:21;3.90;86.90
16663;DHT22;8445;51.270;9.434;2024-03-23T05:50:51;3.90;86.80
16663;DHT22;8445;51.270;9.434;2024-03-23T05:53:19;3.90;86.60
16663;DHT22;8445;51.270;9.434;2024-03-23T05:55:49;3.90;86.60
16663;DHT22;8445;51.270;9.434;2024-03-23T05:58:17;4.00;86.70
16663;DHT22;8445;51.270;9.434;2024-03-23T06:00:44;4.00;86.50
16663;DHT22;8445;51.270;9.434;2024-03-23T06:03:10;4.00;86.10
16663;DHT22;8445;51.270;9.434;2024-03-23T06:05:40;4.00;85.80
16663;DHT22;8445;51.270;9.434;2024-03-23T06:08:09;4.00;85.60
16663;DHT22;8445;51.270;9.434;2024-03-23T06:10:37;4.00;85.60
16663;DHT22;8445;51.270;9.434;2024-03-23T06:13:03;3.90;85.80
16663;DHT22;8445;51.270;9.434;2024-03-23T06:15:29;4.00;85.90
16663;DHT22;8445;51.270;9.434;2024-03-23T06:17:57;3.90;86.00
16663;DHT22;8445;51.270;9.434;2024-03-23T06:20:25;4.00;85.90
16663;DHT22;8445;51.270;9.434;2024-03-23T06:22:54;3.90;85.80
16663;DHT22;8445;51.270;9.434;2024-03-23T06:25:20;3.90;85.80
16663;DHT22;8445;51.270;9.434;2024-03-23T06:27:46;3.90;86.00
16663;DHT22;8445;51.270;9.434;2024-03-23T06:30:12;3.90;86.00
16663;DHT22;8445;51.270;9.434;2024-03-23T06:32:38;3.90;86.30
16663;DHT22;8445;51.270;9.434;2024-03-23T06:35:04;4.00;86.30
16663;DHT22;8445;51.270;9.434;2024-03-23T06:37:42;4.00;85.90
16663;DHT22;8445;51.270;9.434;2024-03-23T06:40:08;4.00;86.00
16663;DHT22;8445;51.270;9.434;2024-03-23T06:42:41;4.00;86.10
16663;DHT22;8445;51.270;9.434;2024-03-23T06:45:07;4.10;85.80
16663;DHT22;8445;51.270;9.434;2024-03-23T06:47:33;4.10;85.50
16663;DHT22;8445;51.270;9.434;2024-03-23T06:50:03;4.10;85.30
16663;DHT22;8445;51.270;9.434;2024-03-23T06:52:30;4.00;85.50
16663;DHT22;8445;51.270;9.434;2024-03-23T06:54:58;4.00;85.50
16663;DHT22;8445;51.270;9.434;2024-03-23T06:57:24;4.10;85.70
16663;DHT22;8445;51.270;9.434;2024-03-23T06:59:52;4.10;85.90
16663;DHT22;8445;51.270;9.434;2024-03-23T07:02:18;4.10;85.00
16663;DHT22;8445;51.270;9.434;2024-03-23T07:04:44;4.20;84.20
16663;DHT22;8445;51.270;9.434;2024-03-23T07:07:10;4.20;83.90
16663;DHT22;8445;51.270;9.434;2024-03-23T07:09:36;4.20;83.80
16663;DHT22;8445;51.270;9.434;2024-03-23T07:12:03;4.20;83.70
16663;DHT22;8445;51.270;9.434;2024-03-23T07:14:32;4.10;83.50
16663;DHT22;8445;51.270;9.434;2024-03-23T07:16:58;4.10;83.50
16663;DHT22;8445;51.270;9.434;2024-03-23T07:19:29;4.10;83.70
16663;DHT22;8445;51.270;9.434;2024-03-23T07:21:57;4.10;84.20
16663;DHT22;8445;51.270;9.434;2024-03-23T07:24:26;4.10;83.70
16663;DHT22;8445;51.270;9.434;2024-03-23T07:27:02;4.20;83.20
16663;DHT22;8445;51.270;9.434;2024-03-23T07:30:02;4.20;83.20
16663;DHT22;8445;51.270;9.434;2024-03-23T07:32:51;4.20;83.70
16663;DHT22;8445;51.270;9.434;2024-03-23T07:35:27;4.20;84.10
16663;DHT22;8445;51.270;9.434;2024-03-23T07:38:28;4.30;84.40
16663;DHT22;8445;51.270;9.434;2024-03-23T07:41:26;4.50;84.70
16663;DHT22;8445;51.270;9.434;2024-03-23T07:44:16;4.70;84.90
16663;DHT22;8445;51.270;9.434;2024-03-23T07:47:05;4.90;84.90
16663;DHT22;8445;51.270;9.434;2024-03-23T07:50:04;5.00;84.30
16663;DHT22;8445;51.270;9.434;2024-03-23T07:53:14;5.10;84.20
16663;DHT22;8445;51.270;9.434;2024-03-23T07:59:19;5.30;84.10
16663;DHT22;8445;51.270;9.434;2024-03-23T08:02:05;5.50;84.10
16663;DHT22;8445;51.270;9.434;2024-03-23T08:04:54;5.50;84.20
16663;DHT22;8445;51.270;9.434;2024-03-23T08:07:45;5.60;83.90
16663;DHT22;8445;51.270;9.434;2024-03-23T08:10:34;5.80;83.70
16663;DHT22;8445;51.270;9.434;2024-03-23T08:13:20;5.80;83.40
16663;DHT22;8445;51.270;9.434;2024-03-23T08:16:12;5.90;83.30
16663;DHT22;8445;51.270;9.434;2024-03-23T08:18:58;5.90;83.10
16663;DHT22;8445;51.270;9.434;2024-03-23T08:21:49;6.00;83.00
16663;DHT22;8445;51.270;9.434;2024-03-23T08:24:36;6.00;83.10
16663;DHT22;8445;51.270;9.434;2024-03-23T08:27:24;6.10;83.40
16663;DHT22;8445;51.270;9.434;2024-03-23T08:30:13;6.30;82.90
16663;DHT22;8445;51.270;9.434;2024-03-23T08:33:00;6.40;82.80
16663;DHT22;8445;51.270;9.434;2024-03-23T08:36:00;6.50;82.90
16663;DHT22;8445;51.270;9.434;2024-03-23T08:38:40;6.60;82.50
16663;DHT22;8445;51.270;9.434;2024-03-23T08:41:39;6.70;82.50
16663;DHT22;8445;51.270;9.434;2024-03-23T08:44:39;6.80;82.50
16663;DHT22;8445;51.270;9.434;2024-03-23T08:47:20;6.90;82.50
16663;DHT22;8445;51.270;9.434;2024-03-23T08:50:27;6.90;82.10
16663;DHT22;8445;51.270;9.434;2024-03-23T08:52:53;6.80;81.50
16663;DHT22;8445;51.270;9.434;2024-03-23T08:55:25;6.80;81.40
16663;DHT22;8445;51.270;9.434;2024-03-23T08:57:54;6.70;82.00
16663;DHT22;8445;51.270;9.434;2024-03-23T09:00:22;6.70;81.90
16663;DHT22;8445;51.270;9.434;2024-03-23T09:02:49;6.70;81.90
16663;DHT22;8445;51.270;9.434;2024-03-23T09:05:16;6.70;81.90
16663;DHT22;8445;51.270;9.434;2024-03-23T09:07:49;6.70;81.90
16663;DHT22;8445;51.270;9.434;2024-03-23T09:10:20;6.70;81.80
16663;DHT22;8445;51.270;9.434;2024-03-23T09:12:48;6.80;81.30
16663;DHT22;8445;51.270;9.434;2024-03-23T09:15:16;6.80;81.90
16663;DHT22;8445;51.270;9.434;2024-03-23T09:17:43;6.90;81.40
16663;DHT22;8445;51.270;9.434;2024-03-23T09:20:20;7.00;81.50
16663;DHT22;8445;51.270;9.434;2024-03-23T09:22:59;7.00;80.80
16663;DHT22;8445;51.270;9.434;2024-03-23T09:25:29;7.10;80.80
16663;DHT22;8445;51.270;9.434;2024-03-23T09:27:57;7.00;80.20
16663;DHT22;8445;51.270;9.434;2024-03-23T09:30:24;7.00;80.50
16663;DHT22;8445;51.270;9.434;2024-03-23T09:32:50;7.00;80.90
16663;DHT22;8445;51.270;9.434;2024-03-23T09:35:16;7.00;81.10
16663;DHT22;8445;51.270;9.434;2024-03-23T09:37:42;7.10;81.00
16663;DHT22;8445;51.270;9.434;2024-03-23T09:40:10;7.20;80.60
16663;DHT22;8445;51.270;9.434;2024-03-23T09:42:37;7.20;80.40
16663;DHT22;8445;51.270;9.434;2024-03-23T09:45:06;7.40;79.70
16663;DHT22;8445;51.270;9.434;2024-03-23T09:47:49;7.50;79.90
16663;DHT22;8445;51.270;9.434;2024-03-23T09:50:19;7.60;80.10
16663;DHT22;8445;51.270;9.434;2024-03-23T09:52:47;7.80;79.20
16663;DHT22;8445;51.270;9.434;2024-03-23T09:55:16;7.90;78.70
16663;DHT22;8445;51.270;9.434;2024-03-23T09:57:47;8.00;78.80
16663;DHT22;8445;51.270;9.434;2024-03-23T10:00:21;8.10;78.60
16663;DHT22;8445;51.270;9.434;2024-03-23T10:02:55;8.40;76.80
16663;DHT22;8445;51.270;9.434;2024-03-23T10:05:37;8.70;76.80
16663;DHT22;8445;51.270;9.434;2024-03-23T10:10:46;9.30;75.60
16663;DHT22;8445;51.270;9.434;2024-03-23T10:13:28;9.50;74.60
16663;DHT22;8445;51.270;9.434;2024-03-23T10:16:00;9.70;72.90
16663;DHT22;8445;51.270;9.434;2024-03-23T10:18:26;9.80;73.70
16663;DHT22;8445;51.270;9.434;2024-03-23T10:23:33;9.80;73.20
16663;DHT22;8445;51.270;9.434;2024-03-23T10:26:22;9.80;71.80
16663;DHT22;8445;51.270;9.434;2024-03-23T10:29:03;9.70;71.40
16663;DHT22;8445;51.270;9.434;2024-03-23T10:31:39;9.70;71.90
16663;DHT22;8445;51.270;9.434;2024-03-23T10:34:07;9.80;69.80
16663;DHT22;8445;51.270;9.434;2024-03-23T10:36:34;9.90;69.50
16663;DHT22;8445;51.270;9.434;2024-03-23T10:39:05;10.00;69.30
16663;DHT22;8445;51.270;9.434;2024-03-23T10:41:33;10.10;69.50
16663;DHT22;8445;51.270;9.434;2024-03-23T10:44:02;10.30;69.60
16663;DHT22;8445;51.270;9.434;2024-03-23T10:47:01;10.40;69.40
16663;DHT22;8445;51.270;9.434;2024-03-23T10:49:52;10.60;68.60
16663;DHT22;8445;51.270;9.434;2024-03-23T10:52:45;10.80;67.90
16663;DHT22;8445;51.270;9.434;2024-03-23T10:55:15;11.00;69.00
16663;DHT22;8445;51.270;9.434;2024-03-23T10:58:17;11.10;69.20
16663;DHT22;8445;51.270;9.434;2024-03-23T11:00:56;11.30;67.30
16663;DHT22;8445;51.270;9.434;2024-03-23T11:03:35;11.30;65.00
16663;DHT22;8445;51.270;9.434;2024-03-23T11:06:09;11.20;62.00
16663;DHT22;8445;51.270;9.434;2024-03-23T11:08:38;11.10;60.00
16663;DHT22;8445;51.270;9.434;2024-03-23T11:11:19;10.90;60.50
16663;DHT22;8445;51.270;9.434;2024-03-23T11:13:52;10.70;60.60
16663;DHT22;8445;51.270;9.434;2024-03-23T11:19:38;10.40;59.10
16663;DHT22;8445;51.270;9.434;2024-03-23T11:22:05;10.10;59.10
16663;DHT22;8445;51.270;9.434;2024-03-23T11:24:32;9.90;59.50
16663;DHT22;8445;51.270;9.434;2024-03-23T11:26:58;9.70;60.10
16663;DHT22;8445;51.270;9.434;2024-03-23T11:29:29;9.50;60.20
16663;DHT22;8445;51.270;9.434;2024-03-23T11:31:56;9.40;60.40
16663;DHT22;8445;51.270;9.434;2024-03-23T11:34:23;9.30;60.40
16663;DHT22;8445;51.270;9.434;2024-03-23T11:36:49;9.20;61.40
16663;DHT22;8445;51.270;9.434;2024-03-23T11:39:19;9.20;61.00
16663;DHT22;8445;51.270;9.434;2024-03-23T11:41:50;9.20;61.50
16663;DHT22;8445;51.270;9.434;2024-03-23T11:44:17;9.20;60.40
16663;DHT22;8445;51.270;9.434;2024-03-23T11:46:45;9.20;60.50
16663;DHT22;8445;51.270;9.434;2024-03-23T11:49:26;9.20;60.30
16663;DHT22;8445;51.270;9.434;2024-03-23T11:51:55;9.40;60.80
16663;DHT22;8445;51.270;9.434;2024-03-23T11:54:28;9.60;62.00
16663;DHT22;8445;51.270;9.434;2024-03-23T11:56:58;10.00;62.50
16663;DHT22;8445;51.270;9.434;2024-03-23T11:59:39;10.30;61.70
16663;DHT22;8445;51.270;9.434;2024-03-23T12:04:34;10.30;59.20
16663;DHT22;8445;51.270;9.434;2024-03-23T12:07:18;9.60;59.80
16663;DHT22;8445;51.270;9.434;2024-03-23T12:09:46;8.70;62.20
16663;DHT22;8445;51.270;9.434;2024-03-23T12:12:15;7.90;64.30
16663;DHT22;8445;51.270;9.434;2024-03-23T12:14:43;7.20;66.40
16663;DHT22;8445;51.270;9.434;2024-03-23T12:17:14;6.70;68.20
16663;DHT22;8445;51.270;9.434;2024-03-23T12:19:42;6.50;69.80
16663;DHT22;8445;51.270;9.434;2024-03-23T12:22:10;6.40;70.70
16663;DHT22;8445;51.270;9.434;2024-03-23T12:24:36;6.50;71.50
16663;DHT22;8445;51.270;9.434;2024-03-23T12:27:05;6.50;72.20
16663;DHT22;8445;51.270;9.434;2024-03-23T12:29:31;6.60;72.30
16663;DHT22;8445;51.270;9.434;2024-03-23T12:32:00;6.70;72.70
16663;DHT22;8445;51.270;9.434;2024-03-23T12:34:27;6.70;71.50
16663;DHT22;8445;51.270;9.434;2024-03-23T12:36:54;6.60;71.60
16663;DHT22;8445;51.270;9.434;2024-03-23T12:39:20;6.60;71.90
16663;DHT22;8445;51.270;9.434;2024-03-23T12:41:49;6.60;72.40
16663;DHT22;8445;51.270;9.434;2024-03-23T12:44:16;6.60;72.80
16663;DHT22;8445;51.270;9.434;2024-03-23T12:46:42;6.50;73.10
16663;DHT22;8445;51.270;9.434;2024-03-23T12:49:08;6.50;72.80
16663;DHT22;8445;51.270;9.434;2024-03-23T12:51:34;6.60;72.30
16663;DHT22;8445;51.270;9.434;2024-03-23T12:54:02;6.50;72.10
16663;DHT22;8445;51.270;9.434;2024-03-23T12:56:35;6.60;72.00
16663;DHT22;8445;51.270;9.434;2024-03-23T12:59:01;6.60;71.90
16663;DHT22;8445;51.270;9.434;2024-03-23T13:01:30;6.60;71.80
16663;DHT22;8445;51.270;9.434;2024-03-23T13:03:58;6.70;71.70
16663;DHT22;8445;51.270;9.434;2024-03-23T13:06:28;6.70;71.50
16663;DHT22;8445;51.270;9.434;2024-03-23T13:09:04;6.90;72.10
16663;DHT22;8445;51.270;9.434;2024-03-23T13:11:33;7.20;71.80
16663;DHT22;8445;51.270;9.434;2024-03-23T13:13:59;7.60;71.40
16663;DHT22;8445;51.270;9.434;2024-03-23T13:16:25;8.00;69.50
16663;DHT22;8445;51.270;9.434;2024-03-23T13:18:51;8.30;69.40
16663;DHT22;8445;51.270;9.434;2024-03-23T13:21:17;8.40;68.50
16663;DHT22;8445;51.270;9.434;2024-03-23T13:23:47;8.60;68.00
16663;DHT22;8445;51.270;9.434;2024-03-23T13:26:14;8.60;67.80
16663;DHT22;8445;51.270;9.434;2024-03-23T13:28:40;8.60;67.50
16663;DHT22;8445;51.270;9.434;2024-03-23T13:31:07;8.60;66.90
16663;DHT22;8445;51.270;9.434;2024-03-23T13:33:34;8.60;66.50
16663;DHT22;8445;51.270;9.434;2024-03-23T13:36:00;8.40;66.70
16663;DHT22;8445;51.270;9.434;2024-03-23T13:38:26;8.30;66.90
16663;DHT22;8445;51.270;9.434;2024-03-23T13:40:55;8.30;65.00
16663;DHT22;8445;51.270;9.434;2024-03-23T13:43:24;8.30;64.70
16663;DHT22;8445;51.270;9.434;2024-03-23T13:45:58;8.40;64.60
16663;DHT22;8445;51.270;9.434;2024-03-23T13:48:26;8.40;64.00
16663;DHT22;8445;51.270;9.434;2024-03-23T13:53:25;8.20;63.80
16663;DHT22;8445;51.270;9.434;2024-03-23T13:55:52;8.10;64.80
16663;DHT22;8445;51.270;9.434;2024-03-23T13:58:18;8.20;64.70
16663;DHT22;8445;51.270;9.434;2024-03-23T14:00:44;8.50;65.50
16663;DHT22;8445;51.270;9.434;2024-03-23T14:03:11;8.70;65.30
16663;DHT22;8445;51.270;9.434;2024-03-23T14:05:38;8.80;65.30
16663;DHT22;8445;51.270;9.434;2024-03-23T14:08:10;8.80;65.00
16663;DHT22;8445;51.270;9.434;2024-03-23T14:10:40;8.60;64.60
16663;DHT22;8445;51.270;9.434;2024-03-23T14:13:06;8.60;65.20
16663;DHT22;8445;51.270;9.434;2024-03-23T14:15:32;8.50;65.50
16663;DHT22;8445;51.270;9.434;2024-03-23T14:17:58;8.30;65.10
16663;DHT22;8445;51.270;9.434;2024-03-23T14:20:25;8.30;64.40
16663;DHT22;8445;51.270;9.434;2024-03-23T14:22:57;8.20;62.60
16663;DHT22;8445;51.270;9.434;2024-03-23T14:25:23;8.10;62.60
16663;DHT22;8445;51.270;9.434;2024-03-23T14:27:52;8.10;62.60
16663;DHT22;8445;51.270;9.434;2024-03-23T14:30:18;8.10;62.70
16663;DHT22;8445;51.270;9.434;2024-03-23T14:32:44;8.10;63.40
16663;DHT22;8445;51.270;9.434;2024-03-23T14:35:11;8.20;63.20
16663;DHT22;8445;51.270;9.434;2024-03-23T14:37:38;8.20;62.60
16663;DHT22;8445;51.270;9.434;2024-03-23T14:40:04;8.30;61.90
16663;DHT22;8445;51.270;9.434;2024-03-23T14:42:31;8.30;60.70
16663;DHT22;8445;51.270;9.434;2024-03-23T14:44:58;8.20;60.30
16663;DHT22;8445;51.270;9.434;2024-03-23T14:47:24;8.20;59.40
16663;DHT22;8445;51.270;9.434;2024-03-23T14:49:50;8.10;59.60
16663;DHT22;8445;51.270;9.434;2024-03-23T14:52:17;8.10;59.60
16663;DHT22;8445;51.270;9.434;2024-03-23T14:54:44;8.10;59.40
16663;DHT22;8445;51.270;9.434;2024-03-23T14:57:10;8.10;58.80
16663;DHT22;8445;51.270;9.434;2024-03-23T14:59:37;8.10;58.50
16663;DHT22;8445;51.270;9.434;2024-03-23T15:02:07;8.20;58.10
16663;DHT22;8445;51.270;9.434;2024-03-23T15:04:33;8.30;57.90
16663;DHT22;8445;51.270;9.434;2024-03-23T15:07:00;8.40;58.50
16663;DHT22;8445;51.270;9.434;2024-03-23T15:09:26;8.60;58.80
16663;DHT22;8445;51.270;9.434;2024-03-23T15:11:52;8.80;58.50
16663;DHT22;8445;51.270;9.434;2024-03-23T15:14:20;8.90;58.20
16663;DHT22;8445;51.270;9.434;2024-03-23T15:16:46;9.00;58.10
16663;DHT22;8445;51.270;9.434;2024-03-23T15:19:15;8.90;57.00
16663;DHT22;8445;51.270;9.434;2024-03-23T15:21:43;8.90;57.20
16663;DHT22;8445;51.270;9.434;2024-03-23T15:24:10;8.80;57.50
16663;DHT22;8445;51.270;9.434;2024-03-23T15:26:39;8.60;57.40
16663;DHT22;8445;51.270;9.434;2024-03-23T15:29:05;8.60;57.20
16663;DHT22;8445;51.270;9.434;2024-03-23T15:31:42;8.50;57.10
16663;DHT22;8445;51.270;9.434;2024-03-23T15:34:08;8.50;56.90
16663;DHT22;8445;51.270;9.434;2024-03-23T15:36:37;8.40;55.90
16663;DHT22;8445;51.270;9.434;2024-03-23T15:39:06;8.40;55.80
16663;DHT22;8445;51.270;9.434;2024-03-23T15:41:32;8.40;55.70
16663;DHT22;8445;51.270;9.434;2024-03-23T15:44:03;8.30;55.50
16663;DHT22;8445;51.270;9.434;2024-03-23T15:46:29;8.30;55.80
16663;DHT22;8445;51.270;9.434;2024-03-23T15:48:55;8.20;55.50
16663;DHT22;8445;51.270;9.434;2024-03-23T15:51:22;8.20;55.60
16663;DHT22;8445;51.270;9.434;2024-03-23T15:53:47;8.20;55.00
16663;DHT22;8445;51.270;9.434;2024-03-23T15:56:13;8.20;55.20
16663;DHT22;8445;51.270;9.434;2024-03-23T15:58:39;8.10;55.00
16663;DHT22;8445;51.270;9.434;2024-03-23T16:01:07;8.10;54.70
16663;DHT22;8445;51.270;9.434;2024-03-23T16:03:39;8.10;55.00
16663;DHT22;8445;51.270;9.434;2024-03-23T16:06:06;8.00;55.00
16663;DHT22;8445;51.270;9.434;2024-03-23T16:08:36;8.00;55.00
16663;DHT22;8445;51.270;9.434;2024-03-23T16:11:04;7.90;54.80
16663;DHT22;8445;51.270;9.434;2024-03-23T16:13:35;7.80;55.10
16663;DHT22;8445;51.270;9.434;2024-03-23T16:16:02;7.80;55.30
16663;DHT22;8445;51.270;9.434;2024-03-23T16:18:34;7.80;55.70
16663;DHT22;8445;51.270;9.434;2024-03-23T16:21:02;7.80;55.70
16663;DHT22;8445;51.270;9.434;2024-03-23T16:23:35;8.00;56.00
16663;DHT22;8445;51.270;9.434;2024-03-23T16:26:05;8.00;55.90
16663;DHT22;8445;51.270;9.434;2024-03-23T16:28:36;8.10;54.90
16663;DHT22;8445;51.270;9.434;2024-03-23T16:31:05;8.20;54.80
16663;DHT22;8445;51.270;9.434;2024-03-23T16:33:35;8.20;54.50
16663;DHT22;8445;51.270;9.434;2024-03-23T16:36:04;8.20;53.90
16663;DHT22;8445;51.270;9.434;2024-03-23T16:38:32;8.10;54.00
16663;DHT22;8445;51.270;9.434;2024-03-23T16:43:34;7.90;53.60
16663;DHT22;8445;51.270;9.434;2024-03-23T16:46:04;7.80;54.20
16663;DHT22;8445;51.270;9.434;2024-03-23T16:48:31;7.60;54.20
16663;DHT22;8445;51.270;9.434;2024-03-23T16:51:01;7.50;54.40
16663;DHT22;8445;51.270;9.434;2024-03-23T16:53:31;7.40;54.60
16663;DHT22;8445;51.270;9.434;2024-03-23T16:56:02;7.20;55.20
16663;DHT22;8445;51.270;9.434;2024-03-23T16:58:33;7.20;55.20
16663;DHT22;8445;51.270;9.434;2024-03-23T17:01:07;7.10;55.30
16663;DHT22;8445;51.270;9.434;2024-03-23T17:03:47;7.00;55.70
16663;DHT22;8445;51.270;9.434;2024-03-23T17:06:14;7.00;56.20
16663;DHT22;8445;51.270;9.434;2024-03-23T17:08:42;7.00;56.60
16663;DHT22;8445;51.270;9.434;2024-03-23T17:11:09;7.00;56.50
16663;DHT22;8445;51.270;9.434;2024-03-23T17:13:35;7.00;56.50
16663;DHT22;8445;51.270;9.434;2024-03-23T17:16:02;6.90;56.30
16663;DHT22;8445;51.270;9.434;2024-03-23T17:18:29;6.90;56.20
16663;DHT22;8445;51.270;9.434;2024-03-23T17:20:55;6.80;56.60
16663;DHT22;8445;51.270;9.434;2024-03-23T17:23:26;6.70;56.70
16663;DHT22;8445;51.270;9.434;2024-03-23T17:25:53;6.60;57.00
16663;DHT22;8445;51.270;9.434;2024-03-23T17:28:19;6.50;57.10
16663;DHT22;8445;51.270;9.434;2024-03-23T17:30:46;6.40;57.40
16663;DHT22;8445;51.270;9.434;2024-03-23T17:33:16;6.30;57.60